Etusivu
METAR-TAF:

METAR-TAF

Lentoasemat :

Santorínin lentoasema

Thíra, Kreikka

Leveyspiiri: 36-24N, Pituuspiiri: 025-29E, korkeus merenpinnasta: 38 m

Tämänhetkinen sää

Tämä raportti tehtiin 48 minuuttia sitten, kello 15.20 UTC
Tuuli 10 kn pohjoisen/luoteesta
Lämpötila 25°C
Kosteus 54%
Ilmanpaine 1015 hPa
Näkyvyys 10 km tai enemmän
ei pilviä alle 1500 m:ssä eikä cumulonimbus-pilviä

METAR: LGSR 241520Z 34010KT CAVOK 25/15 Q1015

Aika: 19:08 (16:08 UTC)

Sääennuste

Tämä raportti tehtiin 5 tuntia ja 8 minuuttia sitten, kello 11.00 UTC
Ennuste voimassa 24. päivästä klo 12 UTC - 25. päivään klo 12 UTC
Tuuli 14 kn pohjoisen/luoteesta
Näkyvyys 10 km tai enemmän
Muutamia pilviä 2000 ft:n korkeudessa

TAF: LGSR 241100Z 2412/2512 33014KT 9999 FEW020

Säähavainnot ja -ennusteet yli 4000 lentoasemalta (METAR- ja TAF-raportit).

Käytössä olevat sääasemat on merkitty karttaan keltaisilla ja punaisilla pisteillä.

Aseta hiiri pisteen päälle nähdäksesi sääaseman nimen.

Klikkaa sitten nähdäksesi säähavainnot ja -ennusteet.

Kartan vaihtaminen: klikkaa mustalla rastilla varustettuja vihreitä pisteitä, niin voit zoomata sisään; viivalla varustettua vihreää pistettä, niin voit zoomata ulos tai vihreitä nuolia, niin pääset viereisille kartoille.


METAR-TAF: